Time;durP1;ratioP1;P1;durP2;ratioP2;P2;SDS_P1;SDS_P2;PMS_P1;PMS_P2;Temp;Humidity;BMP_temperature;BMP_pressure;BME280_temperature;BME280_humidity;BME280_pressure;Samples;Min_cycle;Max_cycle;Signal;HPM_P1;HPM_P2
2023/05/08 00:00:46;;;;;;;12.55;9.20;;;;;;;15.12;100.00;101496.34;4991053;28;20057;-66
2023/05/08 00:03:11;;;;;;;12.68;9.10;;;;;;;15.12;100.00;101494.59;4987586;28;20076;-66
2023/05/08 00:05:37;;;;;;;11.98;9.20;;;;;;;15.11;100.00;101498.06;4983493;28;20117;-65
2023/05/08 00:08:02;;;;;;;13.25;10.40;;;;;;;15.11;100.00;101503.28;4983851;28;20124;-66
2023/05/08 00:10:28;;;;;;;13.02;9.68;;;;;;;15.11;100.00;101503.28;4984304;28;20766;-66
2023/05/08 00:12:54;;;;;;;18.08;10.75;;;;;;;15.12;100.00;101509.34;4972900;28;20050;-66
2023/05/08 00:15:20;;;;;;;14.57;9.73;;;;;;;15.12;100.00;101509.34;4988890;28;20033;-66
2023/05/08 00:17:45;;;;;;;11.40;9.27;;;;;;;15.11;100.00;101510.22;4984716;28;20440;-67
2023/05/08 00:20:11;;;;;;;15.32;10.38;;;;;;;15.11;100.00;101511.09;4987111;28;20121;-66
2023/05/08 00:22:37;;;;;;;13.40;9.55;;;;;;;15.12;100.00;101514.56;4989411;28;20085;-66
2023/05/08 00:25:04;;;;;;;10.95;8.52;;;;;;;15.12;100.00;101514.56;4987518;28;20042;-66
2023/05/08 00:27:30;;;;;;;10.90;8.80;;;;;;;15.11;100.00;101511.09;4982324;28;20092;-66
2023/05/08 00:29:56;;;;;;;10.48;7.35;;;;;;;15.11;100.00;101516.31;4989479;28;20029;-66
2023/05/08 00:32:21;;;;;;;12.88;9.52;;;;;;;15.10;100.00;101513.75;4985539;28;20101;-67
2023/05/08 00:34:47;;;;;;;17.02;10.10;;;;;;;15.10;100.00;101511.13;4989221;28;20466;-67
2023/05/08 00:37:12;;;;;;;16.20;11.05;;;;;;;15.12;100.00;101518.03;4992073;28;20753;-67
2023/05/08 00:39:37;;;;;;;15.43;10.27;;;;;;;15.11;100.00;101513.69;4985628;28;20045;-66
2023/05/08 00:42:03;;;;;;;13.88;9.43;;;;;;;15.11;100.00;101518.03;4974387;28;20034;-66
2023/05/08 00:44:28;;;;;;;12.52;8.30;;;;;;;15.10;100.00;101521.56;4986638;28;21379;-66
2023/05/08 00:46:53;;;;;;;10.43;8.00;;;;;;;15.08;100.00;101525.91;4982771;28;20042;-66
2023/05/08 00:49:19;;;;;;;13.02;7.47;;;;;;;15.05;100.00;101521.59;4989942;28;20038;-66
2023/05/08 00:51:46;;;;;;;11.25;8.63;;;;;;;15.03;100.00;101523.38;4978053;28;20519;-66
2023/05/08 00:54:13;;;;;;;15.98;8.75;;;;;;;15.01;100.00;101519.94;4985110;28;20510;-67
2023/05/08 00:56:39;;;;;;;9.20;7.25;;;;;;;15.00;100.00;101518.22;4977072;28;20415;-66
2023/05/08 00:59:12;;;;;;;14.07;8.15;;;;;;;14.99;100.00;101528.66;4982092;28;20034;-67
2023/05/08 01:01:38;;;;;;;9.77;7.75;;;;;;;14.98;100.00;101530.41;4984435;28;20038;-66
2023/05/08 01:04:04;;;;;;;8.43;6.85;;;;;;;14.96;100.00;101526.09;4987803;28;20041;-66
2023/05/08 01:06:30;;;;;;;11.82;7.55;;;;;;;14.91;100.00;101526.16;4982686;28;20045;-66
2023/05/08 01:08:56;;;;;;;9.02;6.65;;;;;;;14.91;100.00;101538.31;4989303;28;20030;-64
2023/05/08 01:11:48;;;;;;;9.30;6.85;;;;;;;14.87;100.00;101531.44;4982581;28;20065;-64
2023/05/08 01:14:33;;;;;;;10.82;7.70;;;;;;;14.85;100.00;101527.97;4986928;28;20041;-64
2023/05/08 01:17:16;;;;;;;11.60;7.72;;;;;;;14.81;100.00;101529.75;5002702;28;20046;-64
2023/05/08 01:19:50;;;;;;;9.48;7.75;;;;;;;14.81;100.00;101534.13;4984596;28;20054;-65
2023/05/08 01:22:38;;;;;;;9.57;7.40;;;;;;;14.80;100.00;101535.84;4983144;28;20112;-65
2023/05/08 01:25:15;;;;;;;12.85;7.78;;;;;;;14.80;100.00;101532.38;4980787;28;20388;-66
2023/05/08 01:28:09;;;;;;;11.15;7.47;;;;;;;14.80;100.00;101530.66;4985379;28;21098;-65
2023/05/08 01:31:12;;;;;;;12.30;8.00;;;;;;;14.78;100.00;101531.56;4987598;28;20034;-66
2023/05/08 01:33:48;;;;;;;12.55;7.60;;;;;;;14.78;100.00;101524.59;4987073;28;20129;-65
2023/05/08 01:36:22;;;;;;;11.48;8.10;;;;;;;14.75;100.00;101534.22;4983816;28;20113;-65
2023/05/08 01:39:06;;;;;;;14.82;8.88;;;;;;;14.73;100.00;101531.59;4984940;28;20058;-66
2023/05/08 01:41:35;;;;;;;10.75;7.75;;;;;;;14.72;100.00;101534.25;4987380;28;20745;-65
2023/05/08 01:44:17;;;;;;;9.80;8.10;;;;;;;14.72;100.00;101531.63;4985349;28;20045;-66
2023/05/08 01:46:48;;;;;;;12.25;7.90;;;;;;;14.71;100.00;101529.91;4979387;28;20030;-66
2023/05/08 01:49:33;;;;;;;12.65;8.82;;;;;;;14.70;100.00;101531.66;4984615;28;20096;-66
2023/05/08 01:52:03;;;;;;;13.73;8.10;;;;;;;14.70;100.00;101528.19;4985219;28;20066;-67
2023/05/08 01:54:35;;;;;;;12.55;8.65;;;;;;;14.70;100.00;101525.56;4983616;28;20364;-66
2023/05/08 01:57:03;;;;;;;14.45;9.27;;;;;;;14.69;100.00;101523.88;4987764;28;20029;-66
2023/05/08 01:59:31;;;;;;;10.63;8.95;;;;;;;14.69;100.00;101526.47;4980289;28;20027;-66
2023/05/08 02:01:59;;;;;;;15.43;9.23;;;;;;;14.68;100.00;101529.94;4982186;28;20511;-66
2023/05/08 02:04:26;;;;;;;12.70;8.85;;;;;;;14.65;100.00;101531.72;4994993;28;20041;-66
2023/05/08 02:06:54;;;;;;;13.93;8.55;;;;;;;14.64;100.00;101535.19;4992245;28;20045;-66
2023/05/08 02:09:21;;;;;;;17.00;9.38;;;;;;;14.66;100.00;101541.22;4982801;28;20034;-67
2023/05/08 02:11:48;;;;;;;16.80;8.85;;;;;;;14.67;100.00;101539.50;4988769;28;20040;-66
2023/05/08 02:14:18;;;;;;;14.93;8.93;;;;;;;14.66;100.00;101537.78;4989801;28;20641;-66
2023/05/08 02:16:46;;;;;;;14.27;9.95;;;;;;;14.65;100.00;101546.47;4991164;28;20038;-66
2023/05/08 02:19:13;;;;;;;11.30;8.93;;;;;;;14.64;100.00;101544.72;4988406;28;20300;-66
2023/05/08 02:21:40;;;;;;;12.50;8.80;;;;;;;14.61;100.00;101548.25;4994946;28;20034;-66
2023/05/08 02:24:05;;;;;;;11.20;9.50;;;;;;;14.60;100.00;101549.09;4987421;28;20035;-66
2023/05/08 02:26:33;;;;;;;12.48;9.15;;;;;;;14.57;100.00;101543.94;4994289;28;20050;-66
2023/05/08 02:29:01;;;;;;;13.77;8.80;;;;;;;14.58;100.00;101544.81;4990837;28;20140;-66
2023/05/08 02:31:28;;;;;;;12.77;9.43;;;;;;;14.57;100.00;101549.16;4990573;28;20093;-66
2023/05/08 02:33:54;;;;;;;13.27;9.57;;;;;;;14.58;100.00;101547.41;4990677;28;21899;-67
2023/05/08 02:36:21;;;;;;;14.48;9.77;;;;;;;14.61;100.00;101553.44;4988544;28;20116;-66
2023/05/08 02:38:51;;;;;;;16.38;10.30;;;;;;;14.61;100.00;101553.44;4991748;28;20038;-65
2023/05/08 02:41:19;;;;;;;12.68;9.57;;;;;;;14.62;100.00;101554.31;4991947;28;20047;-66
2023/05/08 02:43:45;;;;;;;18.83;9.15;;;;;;;14.62;100.00;101554.31;4983805;28;20053;-66
2023/05/08 02:46:16;;;;;;;16.27;10.13;;;;;;;14.62;100.00;101556.91;4984629;28;20046;-66
2023/05/08 02:48:46;;;;;;;16.10;10.05;;;;;;;14.62;100.00;101552.56;4991143;28;20049;-66
2023/05/08 02:51:24;;;;;;;19.75;9.95;;;;;;;14.62;100.00;101557.78;4988832;28;20596;-66
2023/05/08 02:53:56;;;;;;;13.88;10.00;;;;;;;14.60;100.00;101563.88;4987172;28;20373;-66
2023/05/08 02:56:57;;;;;;;15.23;10.43;;;;;;;14.60;100.00;101559.50;4995058;28;20473;-66
2023/05/08 02:59:30;;;;;;;13.30;9.73;;;;;;;14.58;100.00;101558.69;4985670;28;20038;-65
2023/05/08 03:02:08;;;;;;;12.57;10.15;;;;;;;14.57;100.00;101562.16;4990475;28;20586;-66
2023/05/08 03:04:38;;;;;;;15.20;10.85;;;;;;;14.57;100.00;101562.16;4989435;28;20469;-65
2023/05/08 03:07:05;;;;;;;17.13;10.88;;;;;;;14.56;100.00;101568.25;4988040;28;20519;-65
2023/05/08 03:09:57;;;;;;;13.52;10.43;;;;;;;14.53;100.00;101570.03;4990506;28;20038;-65
2023/05/08 03:12:27;;;;;;;19.50;11.88;;;;;;;14.55;100.00;101568.25;4991809;28;20038;-65
2023/05/08 03:15:01;;;;;;;16.08;11.32;;;;;;;14.54;100.00;101570.00;4989774;28;20388;-65
2023/05/08 03:17:31;;;;;;;15.70;11.95;;;;;;;14.53;100.00;101563.09;4983569;28;20128;-65
2023/05/08 03:20:02;;;;;;;17.42;11.80;;;;;;;14.53;100.00;101565.69;4987595;28;20559;-65
2023/05/08 03:22:29;;;;;;;17.58;12.60;;;;;;;14.51;100.00;101559.63;4987414;28;20109;-65
2023/05/08 03:24:58;;;;;;;16.65;11.60;;;;;;;14.52;100.00;101557.88;4981977;28;20042;-65
2023/05/08 03:27:25;;;;;;;16.85;11.95;;;;;;;14.52;100.00;101563.97;4985465;28;20030;-66
2023/05/08 03:29:52;;;;;;;19.20;12.85;;;;;;;14.51;100.00;101561.38;4991998;28;20026;-65
2023/05/08 03:32:20;;;;;;;18.77;12.55;;;;;;;14.50;100.00;101557.06;4982377;28;20034;-64
2023/05/08 03:34:47;;;;;;;18.27;12.50;;;;;;;14.49;100.00;101556.19;4980437;28;20038;-65
2023/05/08 03:37:12;;;;;;;20.75;13.20;;;;;;;14.47;100.00;101557.97;4984528;28;20041;-65
2023/05/08 03:39:38;;;;;;;19.25;13.25;;;;;;;14.47;100.00;101552.75;4983751;28;20046;-66
2023/05/08 03:42:03;;;;;;;18.35;13.02;;;;;;;14.46;100.00;101560.56;4980323;28;20487;-65
2023/05/08 03:44:30;;;;;;;20.00;13.57;;;;;;;14.43;100.00;101556.25;4988843;28;20042;-65
2023/05/08 03:46:57;;;;;;;19.48;13.13;;;;;;;14.42;100.00;101564.97;4982518;28;20538;-65
2023/05/08 03:49:25;;;;;;;19.60;13.55;;;;;;;14.39;100.00;101551.13;4984017;28;20621;-65
2023/05/08 03:51:53;;;;;;;22.58;15.05;;;;;;;14.35;100.00;101554.59;4982812;28;20086;-65
2023/05/08 03:54:18;;;;;;;20.27;13.90;;;;;;;14.34;100.00;101558.94;4983789;28;20500;-65
2023/05/08 03:56:44;;;;;;;20.25;14.45;;;;;;;14.32;100.00;101565.91;4985821;28;20026;-65
2023/05/08 03:59:16;;;;;;;21.88;14.93;;;;;;;14.34;100.00;101560.66;4981403;28;20066;-65
2023/05/08 04:01:53;;;;;;;21.73;14.65;;;;;;;14.32;100.00;101572.84;4984471;28;20046;-65
2023/05/08 04:04:38;;;;;;;24.88;14.70;;;;;;;14.31;100.00;101571.09;4982297;28;20105;-65
2023/05/08 04:07:15;;;;;;;19.67;14.65;;;;;;;14.30;100.00;101572.88;4986049;28;20030;-65
2023/05/08 04:09:54;;;;;;;24.15;15.48;;;;;;;14.29;100.00;101573.72;4980981;28;20065;-65
2023/05/08 04:12:23;;;;;;;22.65;15.75;;;;;;;14.29;100.00;101568.53;4978776;28;20033;-65
2023/05/08 04:15:04;;;;;;;24.27;15.65;;;;;;;14.29;100.00;101565.94;4987829;28;20058;-65
2023/05/08 04:17:44;;;;;;;24.52;15.82;;;;;;;14.27;100.00;101565.09;4986699;28;20164;-65
2023/05/08 04:20:15;;;;;;;24.40;16.48;;;;;;;14.28;100.00;101571.13;4981085;28;20044;-65
2023/05/08 04:22:42;;;;;;;23.50;16.10;;;;;;;14.24;100.00;101561.66;4983984;28;20038;-64
2023/05/08 04:25:09;;;;;;;24.00;17.10;;;;;;;14.24;100.00;101569.47;4982328;28;20042;-65
2023/05/08 04:27:35;;;;;;;28.60;17.55;;;;;;;14.21;100.00;101566.91;5007871;28;20052;-65
2023/05/08 04:30:01;;;;;;;26.23;16.63;;;;;;;14.22;100.00;101568.63;4987243;28;20061;-64
2023/05/08 04:32:28;;;;;;;25.27;16.35;;;;;;;14.22;100.00;101564.25;4981361;28;20152;-64
2023/05/08 04:34:55;;;;;;;23.40;16.67;;;;;;;14.22;100.00;101569.47;4979513;28;20049;-65
2023/05/08 04:37:25;;;;;;;25.50;17.23;;;;;;;14.21;100.00;101570.34;4981711;28;20042;-64
2023/05/08 04:39:51;;;;;;;25.52;17.33;;;;;;;14.22;100.00;101576.44;4955583;28;20662;-64
2023/05/08 04:42:17;;;;;;;25.95;17.13;;;;;;;14.22;100.00;101566.03;4975710;28;20038;-64
2023/05/08 04:44:42;;;;;;;26.85;17.85;;;;;;;14.23;100.00;101578.13;4993227;28;20689;-64
2023/05/08 04:47:07;;;;;;;25.20;17.88;;;;;;;14.25;100.00;101573.75;4981623;28;20034;-64
2023/05/08 04:49:33;;;;;;;23.83;17.02;;;;;;;14.25;100.00;101573.75;4980871;28;20642;-64
2023/05/08 04:51:58;;;;;;;24.05;17.27;;;;;;;14.27;100.00;101575.50;4978178;28;20045;-64
2023/05/08 04:54:24;;;;;;;24.20;16.33;;;;;;;14.23;100.00;101578.13;4978847;28;20057;-64
2023/05/08 04:56:49;;;;;;;20.95;16.02;;;;;;;14.24;100.00;101580.72;4979998;28;20483;-64
2023/05/08 04:59:14;;;;;;;26.60;17.85;;;;;;;14.22;100.00;101577.25;4978199;28;20031;-64
2023/05/08 05:01:40;;;;;;;24.63;17.00;;;;;;;14.24;100.00;101583.34;4985406;28;20048;-64
2023/05/08 05:04:06;;;;;;;25.10;18.00;;;;;;;14.26;100.00;101589.38;4980614;28;20377;-67
2023/05/08 05:06:32;;;;;;;21.00;16.17;;;;;;;14.24;100.00;101591.13;4979938;28;20080;-64
2023/05/08 05:08:57;;;;;;;25.80;17.48;;;;;;;14.23;100.00;101601.53;4982974;28;20141;-64
2023/05/08 05:11:23;;;;;;;23.52;16.95;;;;;;;14.20;100.00;101599.84;4979091;28;20056;-65
2023/05/08 05:13:48;;;;;;;25.55;19.02;;;;;;;14.25;100.00;101589.38;4985835;28;20124;-65
2023/05/08 05:16:13;;;;;;;26.27;18.55;;;;;;;14.24;100.00;101595.47;4988245;28;20073;-65
2023/05/08 05:18:39;;;;;;;23.38;17.10;;;;;;;14.25;100.00;101599.75;4981693;28;20133;-65
2023/05/08 05:21:04;;;;;;;25.10;18.13;;;;;;;14.30;100.00;101609.28;4989898;28;20862;-64
2023/05/08 05:23:30;;;;;;;23.58;17.95;;;;;;;14.31;100.00;101603.16;4982594;28;20118;-64
2023/05/08 05:25:55;;;;;;;21.73;16.75;;;;;;;14.32;100.00;101609.25;4983407;28;20045;-64
2023/05/08 05:28:20;;;;;;;22.65;17.13;;;;;;;14.34;100.00;101605.75;4985087;28;20776;-64
2023/05/08 05:30:47;;;;;;;26.58;19.08;;;;;;;14.43;100.00;101613.47;4985995;28;20092;-64
2023/05/08 05:33:12;;;;;;;24.38;17.10;;;;;;;14.43;100.00;101608.28;4986606;28;20065;-64
2023/05/08 05:35:38;;;;;;;24.63;18.63;;;;;;;14.49;100.00;101618.63;4985181;28;20145;-64
2023/05/08 05:38:04;;;;;;;25.80;17.80;;;;;;;14.50;100.00;101616.88;4987536;28;20044;-65
2023/05/08 05:40:29;;;;;;;22.15;16.05;;;;;;;14.46;100.00;101615.19;4983979;28;20157;-66
2023/05/08 05:42:55;;;;;;;24.38;17.17;;;;;;;14.47;100.00;101615.19;4981039;28;20736;-65
2023/05/08 05:45:20;;;;;;;23.52;17.20;;;;;;;14.46;100.00;101620.38;4985284;28;20037;-65
2023/05/08 05:47:52;;;;;;;24.08;17.20;;;;;;;14.46;100.00;101623.00;4988555;28;20509;-66
2023/05/08 05:50:18;;;;;;;24.17;17.67;;;;;;;14.51;100.00;101622.06;4987862;28;20030;-65
2023/05/08 05:52:44;;;;;;;24.13;17.45;;;;;;;14.56;100.00;101622.03;4986165;28;20035;-65
2023/05/08 05:55:09;;;;;;;26.10;18.52;;;;;;;14.61;100.00;101623.69;4990077;28;20411;-65
2023/05/08 05:57:35;;;;;;;20.95;16.25;;;;;;;14.67;100.00;101633.16;4991352;28;20365;-65
2023/05/08 06:00:02;;;;;;;26.38;17.15;;;;;;;14.71;100.00;101631.41;4984990;28;20091;-65
2023/05/08 06:02:28;;;;;;;23.83;17.42;;;;;;;14.71;100.00;101634.88;4984306;28;20041;-65
2023/05/08 06:04:53;;;;;;;22.15;17.65;;;;;;;14.76;100.00;101640.00;4984603;28;20042;-65
2023/05/08 06:07:20;;;;;;;22.98;16.25;;;;;;;14.76;100.00;101638.28;5014994;28;20039;-65
2023/05/08 06:09:46;;;;;;;20.48;16.65;;;;;;;14.73;100.00;101635.69;4981380;28;20035;-65
2023/05/08 06:12:11;;;;;;;19.90;16.38;;;;;;;14.64;100.00;101636.66;4981630;28;20045;-65
2023/05/08 06:14:36;;;;;;;19.98;16.45;;;;;;;14.61;100.00;101641.91;4978000;28;20042;-66
2023/05/08 06:17:02;;;;;;;20.17;16.55;;;;;;;14.66;100.00;101642.72;4978313;28;20076;-66
2023/05/08 06:19:27;;;;;;;21.73;16.58;;;;;;;14.64;100.00;101644.47;4979216;28;20042;-66
2023/05/08 06:21:53;;;;;;;28.10;18.77;;;;;;;14.66;100.00;101647.91;4985084;28;20516;-66
2023/05/08 06:24:18;;;;;;;27.75;18.92;;;;;;;14.68;100.00;101641.84;4986016;28;20140;-64
2023/05/08 06:26:45;;;;;;;21.05;17.55;;;;;;;14.66;100.00;101642.72;4990066;28;20127;-64
2023/05/08 06:29:11;;;;;;;28.65;19.05;;;;;;;14.73;100.00;101651.31;4991548;28;20033;-65
2023/05/08 06:31:36;;;;;;;31.17;18.45;;;;;;;14.78;100.00;101651.28;4987158;28;20615;-65
2023/05/08 06:34:02;;;;;;;24.52;18.00;;;;;;;14.82;100.00;101647.75;4991237;28;20048;-64
2023/05/08 06:36:27;;;;;;;25.75;18.08;;;;;;;14.90;100.00;101646.78;4983351;28;20372;-64
2023/05/08 06:38:52;;;;;;;26.95;18.20;;;;;;;14.98;100.00;101649.28;4981889;28;20100;-64
2023/05/08 06:41:18;;;;;;;24.65;19.00;;;;;;;15.01;100.00;101644.91;4982746;28;20129;-66
2023/05/08 06:43:43;;;;;;;23.27;16.85;;;;;;;15.08;100.00;101641.34;4987893;28;20038;-66
2023/05/08 06:46:09;;;;;;;25.38;19.15;;;;;;;15.19;100.00;101646.41;4990535;28;20046;-66
2023/05/08 06:48:34;;;;;;;23.95;17.38;;;;;;;15.21;100.00;101636.84;4988372;28;20033;-65
2023/05/08 06:51:00;;;;;;;26.83;18.27;;;;;;;15.30;100.00;101646.25;4987352;28;20045;-66
2023/05/08 06:53:26;;;;;;;24.10;16.95;;;;;;;15.36;100.00;101648.78;4982781;28;20140;-66
2023/05/08 06:55:51;;;;;;;29.33;16.83;;;;;;;15.42;100.00;101643.50;4994048;28;20829;-66
2023/05/08 06:58:17;;;;;;;19.23;15.95;;;;;;;15.47;100.00;101641.66;4981591;28;20411;-66
2023/05/08 07:00:42;;;;;;;22.00;16.23;;;;;;;15.52;100.00;101638.09;4990588;28;20042;-66
2023/05/08 07:03:07;;;;;;;19.13;16.50;;;;;;;15.50;100.00;101639.88;4988079;28;20038;-66
2023/05/08 07:05:33;;;;;;;23.45;15.98;;;;;;;15.43;100.00;101645.22;4988658;28;20037;-66
2023/05/08 07:07:58;;;;;;;21.38;15.55;;;;;;;15.41;100.00;101649.56;4982220;28;20216;-66
2023/05/08 07:10:24;;;;;;;21.48;17.13;;;;;;;15.41;100.00;101647.84;4982876;28;20049;-66
2023/05/08 07:12:49;;;;;;;21.08;16.52;;;;;;;15.42;100.00;101649.56;4989959;28;20073;-66
2023/05/08 07:15:15;;;;;;;22.90;17.23;;;;;;;15.40;100.00;101653.94;4989453;28;20096;-66
2023/05/08 07:17:40;;;;;;;23.38;18.05;;;;;;;15.39;100.00;101644.41;4986776;28;20088;-67
2023/05/08 07:20:07;;;;;;;19.13;15.90;;;;;;;15.42;100.00;101649.56;4991712;28;20125;-67
2023/05/08 07:22:32;;;;;;;21.67;16.77;;;;;;;15.45;100.00;101644.31;4977185;28;20872;-67
2023/05/08 07:24:58;;;;;;;21.08;16.73;;;;;;;15.47;100.00;101650.34;4978013;28;20041;-67
2023/05/08 07:27:23;;;;;;;21.17;17.42;;;;;;;15.53;100.00;101637.25;4984039;28;20835;-67
2023/05/08 07:29:49;;;;;;;20.10;14.82;;;;;;;15.69;100.00;101646.59;4981129;28;20030;-67
2023/05/08 07:32:14;;;;;;;22.23;17.05;;;;;;;15.86;100.00;101643.72;4983508;28;20030;-66
2023/05/08 07:34:40;;;;;;;22.35;17.27;;;;;;;15.98;99.71;101648.72;4979178;28;20038;-67
2023/05/08 07:37:06;;;;;;;24.58;17.48;;;;;;;16.09;99.01;101652.00;4992625;28;20153;-67
2023/05/08 07:39:31;;;;;;;20.90;16.65;;;;;;;16.30;98.44;101656.88;4981161;28;20042;-68
2023/05/08 07:41:56;;;;;;;20.52;15.48;;;;;;;16.23;96.81;101655.28;4986726;28;20093;-67
2023/05/08 07:44:22;;;;;;;19.27;15.80;;;;;;;16.41;97.16;101661.03;4994593;28;20129;-67
2023/05/08 07:46:47;;;;;;;19.15;16.10;;;;;;;16.57;97.34;101654.63;4983302;28;20117;-67
2023/05/08 07:49:13;;;;;;;18.52;15.73;;;;;;;16.62;95.22;101661.47;4991312;28;20157;-67
2023/05/08 07:51:39;;;;;;;19.85;14.88;;;;;;;16.55;95.22;101659.03;4992865;28;20097;-67
2023/05/08 07:54:04;;;;;;;19.83;15.30;;;;;;;16.72;95.59;101663.03;4981790;28;20065;-66
2023/05/08 07:56:30;;;;;;;22.55;16.10;;;;;;;16.79;95.23;101659.47;4993488;28;20034;-66
2023/05/08 07:58:55;;;;;;;23.30;16.02;;;;;;;16.79;93.81;101656.84;4981418;28;20034;-66
2023/05/08 08:01:21;;;;;;;20.77;15.27;;;;;;;16.74;93.70;101657.81;4988776;28;20063;-66
2023/05/08 08:03:47;;;;;;;20.70;15.80;;;;;;;16.81;93.65;101654.19;4983174;28;20217;-65
2023/05/08 08:06:12;;;;;;;20.42;14.93;;;;;;;16.92;93.43;101657.44;4982031;28;20034;-65
2023/05/08 08:08:38;;;;;;;21.77;16.13;;;;;;;17.03;92.70;101658.13;4992341;28;20030;-66
2023/05/08 08:11:04;;;;;;;19.38;14.40;;;;;;;17.05;91.74;101655.44;4982882;28;20058;-66
2023/05/08 08:13:30;;;;;;;22.35;15.48;;;;;;;17.05;91.33;101658.94;4982467;28;20034;-65
2023/05/08 08:15:56;;;;;;;17.58;15.02;;;;;;;16.91;91.91;101665.34;4982490;28;20077;-65
2023/05/08 08:18:21;;;;;;;19.52;14.00;;;;;;;16.99;93.20;101668.63;4980180;28;20030;-66
2023/05/08 08:20:46;;;;;;;17.42;14.23;;;;;;;16.93;92.30;101664.41;4984350;28;20045;-66
2023/05/08 08:23:12;;;;;;;21.00;14.50;;;;;;;16.99;92.09;101669.50;4989287;28;20042;-65
2023/05/08 08:25:37;;;;;;;18.77;14.57;;;;;;;16.91;92.38;101666.19;4973703;28;20940;-65
2023/05/08 08:28:03;;;;;;;18.80;15.30;;;;;;;16.94;92.61;101668.75;4987269;28;20589;-65
2023/05/08 08:30:28;;;;;;;17.27;14.63;;;;;;;16.91;92.56;101673.16;4986956;28;20053;-65
2023/05/08 08:32:53;;;;;;;17.02;14.07;;;;;;;17.00;92.84;101673.84;4986847;28;20034;-66
2023/05/08 08:35:19;;;;;;;21.25;14.75;;;;;;;17.02;92.07;101665.97;4984905;28;20039;-66
2023/05/08 08:37:44;;;;;;;16.50;13.18;;;;;;;17.01;91.36;101664.25;4988361;28;20041;-66
2023/05/08 08:40:10;;;;;;;19.20;13.40;;;;;;;17.02;90.48;101663.34;4981016;28;20053;-65
2023/05/08 08:42:36;;;;;;;17.23;13.77;;;;;;;17.08;90.64;101663.22;4984119;28;20579;-66
2023/05/08 08:45:01;;;;;;;17.42;12.15;;;;;;;17.13;90.64;101659.63;4991017;28;20037;-66
2023/05/08 08:47:28;;;;;;;16.58;13.02;;;;;;;17.08;89.21;101663.22;4982083;28;20038;-66
2023/05/08 08:49:57;;;;;;;16.50;12.38;;;;;;;16.82;88.10;101667.25;4984694;28;20066;-67
2023/05/08 08:52:34;;;;;;;15.85;12.32;;;;;;;16.88;89.06;101668.00;4981246;28;20038;-66
2023/05/08 08:55:02;;;;;;;17.27;12.73;;;;;;;16.85;88.69;101668.94;4985306;28;20726;-66
2023/05/08 08:57:32;;;;;;;15.80;12.35;;;;;;;16.95;90.07;101665.22;4988287;28;20412;-66
2023/05/08 09:00:02;;;;;;;14.88;12.07;;;;;;;17.00;88.73;101665.16;4984169;28;20041;-67
2023/05/08 09:02:30;;;;;;;17.23;12.95;;;;;;;17.11;88.87;101671.00;4982783;28;20655;-66
2023/05/08 09:04:55;;;;;;;17.88;13.15;;;;;;;17.16;87.23;101658.69;4986141;28;20041;-66
2023/05/08 09:07:23;;;;;;;16.35;12.98;;;;;;;17.33;87.33;101661.84;4987508;28;20042;-65
2023/05/08 09:09:49;;;;;;;17.10;12.80;;;;;;;17.41;87.20;101658.16;4974588;28;20120;-66
2023/05/08 09:12:14;;;;;;;17.05;13.10;;;;;;;17.36;87.38;101659.16;4985458;28;21014;-65
2023/05/08 09:14:40;;;;;;;16.73;13.40;;;;;;;17.32;88.57;101668.81;4976177;28;20042;-65
2023/05/08 09:17:05;;;;;;;18.75;13.68;;;;;;;17.36;89.45;101674.81;4977319;28;20534;-66
2023/05/08 09:19:32;;;;;;;14.50;12.75;;;;;;;17.30;89.66;101673.22;4983407;28;20066;-65
2023/05/08 09:22:02;;;;;;;18.50;14.32;;;;;;;17.25;89.47;101676.78;4981634;28;20069;-66
2023/05/08 09:24:59;;;;;;;18.45;13.30;;;;;;;17.17;89.06;101666.50;4975046;28;20053;-66
2023/05/08 09:27:26;;;;;;;15.13;12.80;;;;;;;17.23;89.40;101668.13;4974281;28;20026;-66
2023/05/08 09:30:05;;;;;;;18.75;12.80;;;;;;;17.08;87.42;101661.47;4985883;28;20031;-66
2023/05/08 09:32:35;;;;;;;15.13;12.07;;;;;;;17.05;87.44;101665.91;4981746;28;20042;-66
2023/05/08 09:35:00;;;;;;;14.45;12.57;;;;;;;17.07;88.13;101672.81;4979955;28;20038;-66
2023/05/08 09:37:27;;;;;;;15.50;12.48;;;;;;;17.00;86.85;101670.38;4979905;28;20115;-66
2023/05/08 09:39:53;;;;;;;19.13;13.25;;;;;;;16.97;86.94;101671.28;4987274;28;20066;-66
2023/05/08 09:42:19;;;;;;;18.48;12.68;;;;;;;17.01;87.32;101672.09;4972943;28;20441;-66
2023/05/08 09:44:53;;;;;;;16.10;13.05;;;;;;;16.98;87.91;101677.38;4988242;28;20072;-66
2023/05/08 09:47:20;;;;;;;17.27;13.50;;;;;;;16.94;87.35;101676.59;5011452;28;20061;-66
2023/05/08 09:50:09;;;;;;;17.75;14.70;;;;;;;16.88;89.57;101679.31;4978394;28;20042;-66
2023/05/08 09:52:36;;;;;;;20.20;13.77;;;;;;;16.72;90.90;101683.06;4980258;28;20041;-66
2023/05/08 09:55:09;;;;;;;18.63;15.07;;;;;;;16.63;92.01;101681.50;4975886;28;20527;-66
2023/05/08 09:57:50;;;;;;;19.48;14.45;;;;;;;16.58;92.71;101675.50;4982455;28;20034;-66
2023/05/08 10:00:15;;;;;;;16.63;14.23;;;;;;;16.54;92.31;101681.66;4979432;28;20037;-66
2023/05/08 10:02:53;;;;;;;22.45;14.95;;;;;;;16.61;92.69;101679.81;4985671;28;20042;-66
2023/05/08 10:05:33;;;;;;;18.52;15.45;;;;;;;16.56;91.76;101684.25;4977830;28;20030;-65
2023/05/08 10:08:16;;;;;;;16.95;13.57;;;;;;;16.53;92.42;101679.97;4987635;28;20789;-65
2023/05/08 10:10:42;;;;;;;20.65;15.05;;;;;;;16.52;93.18;101690.41;4973707;28;20867;-66
2023/05/08 10:13:07;;;;;;;17.98;14.48;;;;;;;16.44;92.22;101684.47;4981499;28;20053;-66
2023/05/08 10:15:33;;;;;;;19.15;15.02;;;;;;;16.46;92.92;101686.16;4975330;28;20054;-66
2023/05/08 10:18:04;;;;;;;17.77;14.20;;;;;;;16.31;92.92;101684.69;4980171;28;20030;-66
2023/05/08 10:20:32;;;;;;;19.92;15.35;;;;;;;16.39;93.65;101689.75;4978447;28;20026;-66
2023/05/08 10:22:57;;;;;;;17.45;14.88;;;;;;;16.33;93.32;101690.72;4979018;28;20038;-66
2023/05/08 10:25:24;;;;;;;16.70;15.00;;;;;;;16.31;93.48;101687.28;5005123;28;20080;-65
2023/05/08 10:27:56;;;;;;;20.48;14.52;;;;;;;16.33;94.10;101682.91;4985646;28;20041;-66
2023/05/08 10:30:26;;;;;;;19.45;16.02;;;;;;;16.33;94.22;101688.13;4984647;28;20038;-66
2023/05/08 10:32:57;;;;;;;19.73;14.80;;;;;;;16.33;93.59;101688.13;4978098;28;20061;-66
2023/05/08 10:35:24;;;;;;;21.75;14.88;;;;;;;16.24;93.49;101684.78;4984568;28;20038;-66
2023/05/08 10:37:50;;;;;;;19.80;15.25;;;;;;;16.22;94.40;101676.16;4977319;28;20050;-66
2023/05/08 10:40:17;;;;;;;19.30;15.88;;;;;;;16.27;94.92;101677.78;4970999;28;20035;-65
2023/05/08 10:42:44;;;;;;;17.33;14.35;;;;;;;16.32;94.47;101675.94;4984947;28;20026;-66
2023/05/08 10:45:10;;;;;;;17.40;14.25;;;;;;;16.28;93.74;101673.44;4988932;28;20045;-65
2023/05/08 10:47:55;;;;;;;18.02;15.35;;;;;;;16.37;93.50;101675.03;4982731;28;20093;-66
2023/05/08 10:50:45;;;;;;;18.90;15.05;;;;;;;16.42;94.24;101674.03;4980418;28;20034;-65
2023/05/08 10:53:23;;;;;;;18.80;15.35;;;;;;;16.52;94.32;101673.00;4985687;28;20042;-66
2023/05/08 10:55:50;;;;;;;18.40;15.27;;;;;;;16.61;94.27;101661.53;4982597;28;20042;-66
2023/05/08 10:58:22;;;;;;;21.98;15.05;;;;;;;16.64;93.91;101664.94;4989891;28;20037;-68
2023/05/08 11:00:56;;;;;;;18.77;14.52;;;;;;;16.66;92.52;101660.56;4984113;28;20053;-66
2023/05/08 11:03:26;;;;;;;16.48;13.68;;;;;;;16.80;91.76;101670.78;4984617;28;20076;-66
2023/05/08 11:05:53;;;;;;;18.27;13.55;;;;;;;16.90;90.56;101666.22;4986274;28;20112;-66
2023/05/08 11:08:26;;;;;;;17.23;13.85;;;;;;;16.85;89.96;101667.19;4981074;28;20038;-65
2023/05/08 11:11:00;;;;;;;15.90;13.23;;;;;;;16.76;90.11;101669.06;4984769;28;20058;-66
2023/05/08 11:13:49;;;;;;;17.77;13.18;;;;;;;16.61;89.69;101661.53;4982097;28;20038;-66